createdAt,value
2019-05-22T00:02:35.409Z,19.40
2019-05-22T00:05:14.446Z,22.63
2019-05-22T00:07:45.366Z,22.37
2019-05-22T00:10:19.114Z,20.90
2019-05-22T00:12:49.679Z,21.60
2019-05-22T00:15:21.030Z,23.70
2019-05-22T00:17:51.469Z,22.63
2019-05-22T00:20:22.367Z,22.70
2019-05-22T00:22:54.073Z,22.47
2019-05-22T00:25:26.628Z,22.03
2019-05-22T00:27:56.587Z,22.47
2019-05-22T00:30:27.729Z,22.43
2019-05-22T00:32:57.483Z,21.13
2019-05-22T00:35:27.065Z,14.93
2019-05-22T00:37:57.165Z,19.57
2019-05-22T00:40:29.324Z,23.57
2019-05-22T00:43:04.298Z,22.80
2019-05-22T00:45:31.417Z,25.10
2019-05-22T00:48:03.251Z,21.33
2019-05-22T00:50:53.527Z,18.23
2019-05-22T00:53:29.604Z,24.23
2019-05-22T00:56:01.932Z,24.43
2019-05-22T00:58:35.112Z,25.83
2019-05-22T01:01:16.709Z,27.00
2019-05-22T01:03:48.293Z,21.30
2019-05-22T01:06:19.087Z,21.97
2019-05-22T01:08:56.434Z,25.33
2019-05-22T01:11:29.400Z,27.30
2019-05-22T01:14:01.576Z,24.77
2019-05-22T01:16:31.190Z,23.40
2019-05-22T01:19:02.769Z,19.40
2019-05-22T01:21:33.418Z,27.23
2019-05-22T01:24:04.723Z,27.50
2019-05-22T01:26:35.993Z,29.50
2019-05-22T01:29:07.031Z,30.60
2019-05-22T01:31:42.123Z,30.37
2019-05-22T01:34:13.100Z,31.57
2019-05-22T01:36:45.380Z,31.50
2019-05-22T01:39:45.137Z,31.20
2019-05-22T01:42:21.143Z,23.30
2019-05-22T01:45:04.340Z,28.17
2019-05-22T01:47:35.760Z,27.63
2019-05-22T01:50:06.501Z,22.97
2019-05-22T01:52:38.434Z,29.60
2019-05-22T01:55:09.930Z,30.63
2019-05-22T01:57:40.845Z,27.40
2019-05-22T02:00:12.268Z,30.80
2019-05-22T02:02:42.880Z,29.10
2019-05-22T02:05:12.336Z,28.40
2019-05-22T02:07:42.517Z,24.87
2019-05-22T02:10:17.461Z,16.00
2019-05-22T02:12:52.839Z,23.77
2019-05-22T02:15:22.804Z,19.40
2019-05-22T02:17:52.251Z,19.30
2019-05-22T02:20:22.616Z,20.03
2019-05-22T02:22:51.899Z,21.17
2019-05-22T02:25:21.435Z,16.10
2019-05-22T02:27:50.817Z,17.40
2019-05-22T02:30:22.703Z,22.77
2019-05-22T02:32:52.924Z,17.50
2019-05-22T02:35:22.591Z,18.63
2019-05-22T02:37:52.091Z,22.10
2019-05-22T02:40:27.403Z,22.50
2019-05-22T02:42:57.829Z,20.50
2019-05-22T02:45:27.420Z,13.20
2019-05-22T02:47:58.556Z,21.10
2019-05-22T02:50:29.636Z,20.80
2019-05-22T02:53:00.159Z,20.73
2019-05-22T02:55:30.233Z,18.67
2019-05-22T02:57:59.353Z,17.20
2019-05-22T03:00:33.757Z,16.03
2019-05-22T03:03:04.366Z,11.23
2019-05-22T03:05:34.269Z,15.57
2019-05-22T03:08:04.419Z,12.13
2019-05-22T03:10:34.905Z,13.80
2019-05-22T03:13:04.376Z,12.20
2019-05-22T03:15:33.483Z,15.60
2019-05-22T03:18:05.387Z,14.90
2019-05-22T03:20:35.974Z,15.30
2019-05-22T03:23:33.468Z,8.90
2019-05-22T03:26:04.359Z,17.30
2019-05-22T03:28:34.898Z,10.77
2019-05-22T03:31:05.332Z,17.37
2019-05-22T03:33:34.517Z,18.13
2019-05-22T03:36:13.761Z,19.97
2019-05-22T03:38:44.248Z,14.60
2019-05-22T03:41:14.733Z,12.97
2019-05-22T03:43:47.932Z,12.67
2019-05-22T03:46:38.908Z,19.83
2019-05-22T03:49:28.329Z,20.03
2019-05-22T03:51:41.375Z,24.97
2019-05-22T03:54:10.562Z,23.63
2019-05-22T03:56:43.198Z,20.00
2019-05-22T03:59:13.625Z,16.50
2019-05-22T04:01:44.911Z,20.20
2019-05-22T04:04:20.214Z,17.10
2019-05-22T04:06:52.338Z,18.33
2019-05-22T04:09:25.389Z,22.87
2019-05-22T04:11:55.041Z,15.03
2019-05-22T04:14:32.896Z,18.47
2019-05-22T04:17:02.382Z,18.97
2019-05-22T04:19:47.251Z,15.30
2019-05-22T04:22:02.299Z,21.57
2019-05-22T04:24:32.254Z,16.43
2019-05-22T04:27:05.231Z,18.10
2019-05-22T04:29:34.832Z,15.13
2019-05-22T04:32:22.497Z,17.50
2019-05-22T04:34:53.112Z,20.13
2019-05-22T04:37:23.745Z,18.33
2019-05-22T04:39:56.056Z,17.60
2019-05-22T04:42:27.073Z,18.37
2019-05-22T04:45:10.044Z,24.23
2019-05-22T04:47:40.059Z,19.07
2019-05-22T04:50:10.423Z,19.83
2019-05-22T04:52:39.699Z,19.47
2019-05-22T04:55:11.386Z,23.50
2019-05-22T04:57:41.003Z,15.50
2019-05-22T05:00:11.720Z,15.47
2019-05-22T05:02:41.259Z,15.83
2019-05-22T05:05:11.692Z,25.47
2019-05-22T05:07:41.479Z,24.23
2019-05-22T05:10:11.332Z,19.03
2019-05-22T05:12:42.406Z,25.10
2019-05-22T05:15:11.636Z,22.97
2019-05-22T05:17:40.974Z,19.70
2019-05-22T05:20:22.128Z,24.37
2019-05-22T05:22:43.723Z,22.37
2019-05-22T05:25:13.784Z,18.80
2019-05-22T05:27:43.735Z,16.07
2019-05-22T05:30:15.712Z,16.80
2019-05-22T05:32:45.440Z,16.37
2019-05-22T05:35:17.182Z,13.80
2019-05-22T05:37:46.999Z,14.23
2019-05-22T05:40:36.180Z,15.87
2019-05-22T05:43:06.942Z,21.47
2019-05-22T05:45:38.900Z,22.97
2019-05-22T05:48:10.241Z,22.87
2019-05-22T05:50:40.695Z,25.43
2019-05-22T05:53:16.860Z,27.70
2019-05-22T05:56:11.582Z,25.73
2019-05-22T05:58:40.870Z,22.40
2019-05-22T06:01:24.157Z,24.90
2019-05-22T06:03:54.042Z,25.57
2019-05-22T06:07:07.900Z,20.70
2019-05-22T06:09:37.201Z,24.60
2019-05-22T06:12:08.263Z,17.37
2019-05-22T06:14:38.468Z,25.27
2019-05-22T06:17:44.595Z,21.10
2019-05-22T06:20:20.329Z,24.47
2019-05-22T06:23:49.909Z,22.10
2019-05-22T06:26:53.791Z,34.80
2019-05-22T06:29:28.144Z,25.40
2019-05-22T06:32:43.114Z,21.63
2019-05-22T06:35:13.006Z,18.30
2019-05-22T06:38:09.645Z,31.80
2019-05-22T06:40:38.911Z,23.93
2019-05-22T06:44:01.417Z,23.77
2019-05-22T06:46:47.673Z,18.67
2019-05-22T06:49:46.081Z,20.27
2019-05-22T06:52:16.311Z,25.10
2019-05-22T06:54:45.629Z,21.27
2019-05-22T06:57:18.361Z,17.57
2019-05-22T06:59:49.117Z,13.40
2019-05-22T07:02:19.070Z,21.07
2019-05-22T07:04:48.655Z,11.53
2019-05-22T07:07:18.392Z,20.93
2019-05-22T07:09:48.468Z,23.20
2019-05-22T07:12:19.809Z,18.20
2019-05-22T07:15:34.182Z,15.43
2019-05-22T07:18:05.574Z,25.27
2019-05-22T07:20:38.111Z,15.53
2019-05-22T07:23:08.671Z,20.80
2019-05-22T07:25:40.271Z,22.63
2019-05-22T07:28:10.156Z,24.83
2019-05-22T07:30:39.846Z,24.67
2019-05-22T07:33:09.233Z,14.93
2019-05-22T07:35:56.025Z,18.03
2019-05-22T07:38:09.466Z,18.20
2019-05-22T07:40:39.720Z,18.37
2019-05-22T07:43:08.844Z,23.03
2019-05-22T07:45:38.566Z,18.60
2019-05-22T07:48:10.448Z,23.10
2019-05-22T07:50:48.007Z,16.27
2019-05-22T07:53:16.897Z,18.00
2019-05-22T07:55:46.794Z,17.07
2019-05-22T07:58:17.050Z,19.10
2019-05-22T08:01:12.595Z,15.57
2019-05-22T08:03:44.956Z,15.57
2019-05-22T08:06:15.092Z,22.57
2019-05-22T08:08:45.430Z,20.10
2019-05-22T08:11:15.091Z,17.97
2019-05-22T08:13:45.789Z,19.23
2019-05-22T08:16:15.837Z,20.00
2019-05-22T08:18:46.076Z,22.83
2019-05-22T08:21:16.039Z,18.83
2019-05-22T08:23:45.378Z,24.17
2019-05-22T08:26:16.829Z,28.70
2019-05-22T08:28:46.308Z,27.60
2019-05-22T08:31:17.356Z,22.17
2019-05-22T08:33:47.666Z,18.00
2019-05-22T08:36:17.267Z,19.13
2019-05-22T08:38:46.539Z,24.30
2019-05-22T08:41:19.279Z,14.90
2019-05-22T08:44:12.042Z,18.70
2019-05-22T08:46:19.964Z,18.03
2019-05-22T08:48:49.772Z,14.77
2019-05-22T08:51:19.159Z,16.60
2019-05-22T08:53:48.976Z,17.60
2019-05-22T08:56:18.943Z,15.27
2019-05-22T08:58:48.629Z,9.03
2019-05-22T09:01:18.120Z,16.57
2019-05-22T09:03:48.015Z,11.70
2019-05-22T09:06:17.224Z,16.13
2019-05-22T09:08:46.536Z,10.40
2019-05-22T09:11:15.721Z,13.20
2019-05-22T09:13:45.267Z,12.80
2019-05-22T09:16:16.718Z,15.80
2019-05-22T09:18:46.279Z,13.57
2019-05-22T09:21:16.657Z,11.63
2019-05-22T09:23:46.713Z,10.97
2019-05-22T09:26:17.329Z,9.80
2019-05-22T09:28:47.042Z,12.27
2019-05-22T09:31:16.164Z,12.67
2019-05-22T09:33:45.442Z,18.67
2019-05-22T09:36:14.794Z,15.50
2019-05-22T09:38:44.084Z,11.37
2019-05-22T09:41:13.304Z,19.07
2019-05-22T09:43:42.361Z,16.73
2019-05-22T09:46:12.109Z,16.53
2019-05-22T09:48:41.709Z,13.60
2019-05-22T09:51:11.272Z,13.47
2019-05-22T09:53:41.072Z,10.90
2019-05-22T09:56:10.649Z,19.73
2019-05-22T09:58:40.080Z,15.37
2019-05-22T10:01:11.929Z,15.13
2019-05-22T10:03:41.755Z,19.30
2019-05-22T10:06:11.596Z,18.87
2019-05-22T10:08:41.260Z,13.70
2019-05-22T10:11:10.534Z,15.30
2019-05-22T10:13:39.923Z,13.40
2019-05-22T10:16:09.112Z,15.80
2019-05-22T10:18:38.277Z,18.87
2019-05-22T10:21:07.367Z,14.80
2019-05-22T10:23:36.866Z,14.83
2019-05-22T10:26:06.550Z,20.60
2019-05-22T10:28:35.819Z,16.57
2019-05-22T10:31:05.792Z,18.27
2019-05-22T10:33:35.476Z,17.93
2019-05-22T10:36:05.072Z,14.57
2019-05-22T10:38:34.656Z,22.43
2019-05-22T10:41:04.085Z,18.77
2019-05-22T10:43:33.486Z,21.30
2019-05-22T10:46:02.803Z,16.20
2019-05-22T10:48:31.963Z,14.40
2019-05-22T10:51:01.122Z,14.30
2019-05-22T10:53:34.149Z,14.47
2019-05-22T10:56:01.436Z,16.73
2019-05-22T10:58:31.408Z,18.33
2019-05-22T11:01:00.636Z,10.50
2019-05-22T11:03:30.932Z,14.53
2019-05-22T11:06:06.970Z,15.23
2019-05-22T11:08:34.324Z,16.47
2019-05-22T11:11:02.391Z,10.30
2019-05-22T11:13:34.232Z,18.97
2019-05-22T11:16:02.633Z,14.80
2019-05-22T11:18:31.778Z,17.23
2019-05-22T11:21:00.910Z,17.93
2019-05-22T11:23:30.014Z,18.27
2019-05-22T11:25:59.259Z,17.60
2019-05-22T11:28:29.447Z,12.00
2019-05-22T11:30:59.955Z,12.00
2019-05-22T11:33:29.119Z,14.50
2019-05-22T11:35:58.420Z,13.80
2019-05-22T11:38:28.185Z,16.00
2019-05-22T11:40:57.584Z,15.80
2019-05-22T11:43:28.314Z,16.13
2019-05-22T11:45:57.456Z,13.40
2019-05-22T11:48:26.637Z,14.43
2019-05-22T11:50:56.618Z,13.97
2019-05-22T11:53:25.807Z,17.43
2019-05-22T11:55:54.975Z,14.87
2019-05-22T11:58:24.808Z,18.10
2019-05-22T12:00:54.236Z,13.57
2019-05-22T12:03:24.702Z,15.80
2019-05-22T12:05:54.931Z,15.50
2019-05-22T12:08:24.973Z,11.60
2019-05-22T12:10:54.176Z,8.27
2019-05-22T12:13:23.566Z,10.50
2019-05-22T12:15:53.473Z,12.70
2019-05-22T12:18:22.922Z,13.20
2019-05-22T12:20:52.205Z,13.10
2019-05-22T12:23:21.406Z,17.67
2019-05-22T12:25:50.605Z,14.10
2019-05-22T12:28:20.111Z,14.03
2019-05-22T12:30:49.675Z,10.90
2019-05-22T12:33:18.819Z,16.33
2019-05-22T12:35:49.348Z,11.93
2019-05-22T12:38:19.671Z,14.47
2019-05-22T12:40:48.981Z,15.70
2019-05-22T12:43:18.734Z,13.23
2019-05-22T12:45:47.960Z,15.03
2019-05-22T12:48:18.529Z,15.93
2019-05-22T12:50:47.983Z,11.87
2019-05-22T12:53:17.309Z,15.60
2019-05-22T12:55:46.962Z,12.70
2019-05-22T12:58:16.917Z,11.97
2019-05-22T13:00:46.181Z,16.27
2019-05-22T13:03:21.794Z,16.00
2019-05-22T13:05:51.830Z,18.13
2019-05-22T13:08:21.827Z,13.93
2019-05-22T13:10:52.583Z,13.73
2019-05-22T13:13:22.680Z,12.43
2019-05-22T13:15:52.538Z,9.97
2019-05-22T13:18:22.579Z,13.90
2019-05-22T13:20:52.933Z,11.73
2019-05-22T13:23:26.652Z,12.93
2019-05-22T13:25:56.541Z,10.67
2019-05-22T13:28:28.417Z,9.57
2019-05-22T13:30:58.756Z,10.70
2019-05-22T13:33:29.166Z,11.60
2019-05-22T13:35:58.496Z,12.43
2019-05-22T13:38:28.392Z,11.93
2019-05-22T13:40:58.196Z,13.83
2019-05-22T13:43:28.664Z,15.17
2019-05-22T13:45:58.096Z,12.97
2019-05-22T13:48:28.078Z,9.73
2019-05-22T13:50:59.275Z,10.70
2019-05-22T13:53:29.669Z,11.50
2019-05-22T13:55:59.120Z,11.57
2019-05-22T13:58:29.333Z,7.87
2019-05-22T14:00:58.577Z,15.07
2019-05-22T14:03:28.392Z,12.10
2019-05-22T14:05:58.195Z,12.30
2019-05-22T14:08:27.656Z,9.50
2019-05-22T14:10:56.799Z,8.17
2019-05-22T14:13:26.992Z,13.77
2019-05-22T14:15:57.556Z,12.83
2019-05-22T14:18:27.308Z,11.90
2019-05-22T14:20:56.783Z,8.90
2019-05-22T14:23:26.114Z,13.23
2019-05-22T14:25:55.803Z,10.00
2019-05-22T14:28:27.372Z,9.13
2019-05-22T14:30:57.041Z,9.90
2019-05-22T14:33:28.241Z,14.20
2019-05-22T14:35:57.860Z,12.20
2019-05-22T14:38:27.497Z,14.93
2019-05-22T14:40:57.420Z,9.57
2019-05-22T14:43:26.932Z,18.27
2019-05-22T14:45:56.452Z,17.80
2019-05-22T14:48:25.680Z,9.97
2019-05-22T14:50:55.143Z,9.80
2019-05-22T14:53:24.933Z,8.90
2019-05-22T14:55:54.795Z,8.70
2019-05-22T14:58:24.900Z,13.40
2019-05-22T15:00:54.780Z,11.40
2019-05-22T15:03:24.114Z,12.93
2019-05-22T15:05:54.324Z,10.90
2019-05-22T15:08:23.972Z,15.73
2019-05-22T15:10:53.427Z,16.17
2019-05-22T15:13:23.219Z,13.20
2019-05-22T15:15:52.606Z,14.87
2019-05-22T15:18:22.056Z,16.60
2019-05-22T15:20:56.638Z,18.13
2019-05-22T15:23:26.826Z,12.67
2019-05-22T15:25:56.006Z,13.63
2019-05-22T15:28:26.871Z,10.70
2019-05-22T15:30:56.384Z,17.83
2019-05-22T15:33:25.784Z,16.60
2019-05-22T15:35:55.260Z,14.97
2019-05-22T15:38:24.662Z,19.73
2019-05-22T15:40:54.922Z,10.93
2019-05-22T15:43:25.552Z,13.83
2019-05-22T15:45:56.030Z,18.90
2019-05-22T15:48:33.713Z,17.50
2019-05-22T15:51:07.667Z,17.17
2019-05-22T15:53:39.005Z,15.30
2019-05-22T15:56:09.578Z,16.37
2019-05-22T15:58:45.812Z,20.47
2019-05-22T16:01:18.559Z,17.57
2019-05-22T16:03:48.404Z,21.87
2019-05-22T16:06:18.532Z,18.60
2019-05-22T16:08:48.924Z,10.70
2019-05-22T16:11:18.804Z,17.97
2019-05-22T16:13:49.036Z,16.70
2019-05-22T16:16:22.112Z,13.00
2019-05-22T16:18:55.173Z,14.30
2019-05-22T16:21:24.872Z,12.07
2019-05-22T16:23:55.120Z,12.57
2019-05-22T16:26:24.568Z,16.43
2019-05-22T16:28:55.116Z,10.53
2019-05-22T16:31:24.868Z,17.00
2019-05-22T16:33:54.535Z,17.50
2019-05-22T16:36:24.278Z,18.30
2019-05-22T16:38:54.745Z,13.43
2019-05-22T16:41:25.724Z,13.87
2019-05-22T16:43:55.200Z,14.80
2019-05-22T16:46:25.878Z,16.47
2019-05-22T16:48:55.687Z,13.00
2019-05-22T16:51:25.979Z,12.80
2019-05-22T16:53:57.716Z,15.57
2019-05-22T16:56:27.720Z,16.37
2019-05-22T16:58:57.500Z,13.70
2019-05-22T17:01:27.273Z,16.90
2019-05-22T17:03:59.587Z,10.60
2019-05-22T17:06:29.559Z,13.70
2019-05-22T17:09:00.602Z,15.13
2019-05-22T17:11:31.562Z,14.70
2019-05-22T17:14:04.672Z,10.70
2019-05-22T17:16:37.080Z,14.90
2019-05-22T17:19:25.642Z,13.90
2019-05-22T17:21:39.184Z,11.43
2019-05-22T17:24:10.723Z,16.77
2019-05-22T17:26:40.571Z,16.90
2019-05-22T17:29:11.982Z,14.97
2019-05-22T17:31:41.238Z,20.17
2019-05-22T17:34:28.732Z,19.37
2019-05-22T17:36:58.134Z,18.30
2019-05-22T17:39:29.153Z,16.83
2019-05-22T17:41:58.525Z,8.60
2019-05-22T17:44:28.421Z,19.80
2019-05-22T17:46:58.838Z,16.47
2019-05-22T17:49:28.052Z,19.73
2019-05-22T17:51:57.635Z,15.07
2019-05-22T17:54:27.417Z,21.60
2019-05-22T17:56:56.945Z,18.97
2019-05-22T17:59:26.266Z,18.80
2019-05-22T18:01:56.394Z,19.53
2019-05-22T18:04:26.088Z,18.20
2019-05-22T18:06:55.520Z,15.03
2019-05-22T18:09:25.109Z,17.23
2019-05-22T18:11:54.446Z,20.73
2019-05-22T18:14:24.000Z,20.10
2019-05-22T18:16:53.330Z,17.97
2019-05-22T18:19:22.628Z,16.53
2019-05-22T18:21:51.892Z,19.13
2019-05-22T18:24:21.439Z,18.03
2019-05-22T18:26:50.755Z,16.90
2019-05-22T18:29:19.961Z,17.03
2019-05-22T18:31:49.157Z,20.00
2019-05-22T18:34:19.179Z,18.80
2019-05-22T18:36:48.437Z,17.30
2019-05-22T18:39:17.767Z,18.97
2019-05-22T18:41:47.317Z,20.40
2019-05-22T18:44:16.534Z,20.10
2019-05-22T18:46:45.602Z,18.80
2019-05-22T18:49:14.726Z,18.67
2019-05-22T18:51:44.443Z,19.37
2019-05-22T18:54:13.551Z,19.07
2019-05-22T18:56:42.750Z,22.00
2019-05-22T18:59:11.948Z,21.33
2019-05-22T19:01:41.128Z,20.77
2019-05-22T19:04:10.451Z,21.33
2019-05-22T19:06:39.664Z,20.60
2019-05-22T19:09:10.047Z,21.67
2019-05-22T19:11:39.419Z,19.57
2019-05-22T19:14:09.171Z,19.37
2019-05-22T19:16:38.467Z,20.40
2019-05-22T19:19:07.625Z,21.23
2019-05-22T19:21:36.818Z,20.03
2019-05-22T19:24:05.962Z,17.77
2019-05-22T19:26:35.271Z,19.67
2019-05-22T19:29:04.656Z,20.50
2019-05-22T19:31:33.755Z,21.73
2019-05-22T19:34:02.886Z,19.60
2019-05-22T19:36:32.089Z,19.97
2019-05-22T19:39:01.306Z,20.83
2019-05-22T19:41:30.772Z,22.47
2019-05-22T19:43:59.883Z,19.40
2019-05-22T19:46:29.264Z,19.20
2019-05-22T19:49:00.031Z,20.83
2019-05-22T19:51:30.319Z,17.53
2019-05-22T19:54:00.494Z,18.93
2019-05-22T19:56:30.124Z,18.00
2019-05-22T19:58:59.668Z,19.57
2019-05-22T20:01:30.462Z,17.43
2019-05-22T20:04:00.019Z,18.13
2019-05-22T20:06:29.456Z,18.00
2019-05-22T20:08:59.087Z,24.50
2019-05-22T20:11:28.660Z,18.50
2019-05-22T20:13:58.312Z,38.00
2019-05-22T20:16:27.366Z,32.47
2019-05-22T20:18:56.710Z,18.30
2019-05-22T20:21:25.910Z,17.77
2019-05-22T20:23:54.978Z,16.60
2019-05-22T20:26:24.387Z,8.37
2019-05-22T20:28:53.971Z,14.63
2019-05-22T20:31:24.060Z,16.50
2019-05-22T20:33:53.203Z,17.57
2019-05-22T20:36:22.418Z,14.63
2019-05-22T20:38:51.546Z,18.00
2019-05-22T20:41:22.244Z,16.20
2019-05-22T20:43:51.877Z,16.40
2019-05-22T20:46:22.095Z,14.70
2019-05-22T20:48:51.368Z,16.83
2019-05-22T20:51:20.915Z,15.17
2019-05-22T20:53:54.663Z,13.83
2019-05-22T20:56:23.912Z,15.10
2019-05-22T20:58:53.395Z,14.97
2019-05-22T21:01:23.432Z,15.77
2019-05-22T21:03:52.813Z,13.67
2019-05-22T21:06:23.370Z,13.57
2019-05-22T21:08:53.450Z,12.33
2019-05-22T21:11:25.554Z,13.60
2019-05-22T21:13:54.658Z,13.93
2019-05-22T21:16:24.708Z,13.80
2019-05-22T21:18:54.783Z,12.50
2019-05-22T21:21:26.225Z,12.60
2019-05-22T21:24:09.485Z,10.90
2019-05-22T21:26:26.939Z,11.33
2019-05-22T21:28:57.127Z,14.10
2019-05-22T21:31:26.587Z,13.20
2019-05-22T21:33:56.973Z,11.80
2019-05-22T21:36:29.115Z,12.30
2019-05-22T21:38:58.251Z,13.40
2019-05-22T21:41:28.015Z,12.70
2019-05-22T21:43:57.672Z,13.60
2019-05-22T21:46:27.300Z,13.90
2019-05-22T21:48:59.357Z,12.40
2019-05-22T21:51:28.856Z,13.27
2019-05-22T21:53:58.437Z,13.03
2019-05-22T21:56:27.812Z,11.60
2019-05-22T21:58:57.620Z,12.73
2019-05-22T22:01:36.416Z,12.37
2019-05-22T22:04:26.050Z,11.83
2019-05-22T22:06:56.422Z,13.93
2019-05-22T22:09:28.070Z,13.73
2019-05-22T22:11:58.620Z,13.87
2019-05-22T22:14:29.073Z,13.73
2019-05-22T22:17:00.202Z,13.60
2019-05-22T22:19:29.745Z,13.30
2019-05-22T22:22:00.105Z,12.50
2019-05-22T22:24:29.963Z,12.90
2019-05-22T22:26:59.820Z,11.50
2019-05-22T22:29:29.343Z,12.77
2019-05-22T22:31:59.177Z,12.90
2019-05-22T22:34:43.455Z,12.47
2019-05-22T22:37:13.741Z,12.20
2019-05-22T22:39:47.627Z,12.13
2019-05-22T22:42:18.266Z,11.70
2019-05-22T22:44:51.779Z,13.03
2019-05-22T22:47:26.761Z,12.30
2019-05-22T22:49:57.758Z,11.03
2019-05-22T22:52:27.840Z,11.40
2019-05-22T22:54:58.488Z,13.60
2019-05-22T22:57:27.991Z,11.90
2019-05-22T22:59:57.672Z,13.00
2019-05-22T23:02:30.790Z,12.33
2019-05-22T23:05:01.103Z,12.13
2019-05-22T23:07:31.769Z,12.47
2019-05-22T23:10:01.196Z,13.67
2019-05-22T23:12:32.556Z,13.57
2019-05-22T23:15:01.761Z,11.60
2019-05-22T23:17:31.230Z,13.97
2019-05-22T23:19:59.539Z,13.70
2019-05-22T23:22:28.686Z,13.73
2019-05-22T23:25:00.258Z,13.17
2019-05-22T23:27:31.544Z,13.37
2019-05-22T23:30:01.247Z,13.23
2019-05-22T23:32:31.156Z,11.60
2019-05-22T23:35:01.108Z,13.40
2019-05-22T23:37:30.521Z,13.40
2019-05-22T23:40:00.013Z,12.73
2019-05-22T23:42:35.701Z,12.90
2019-05-22T23:45:08.222Z,13.97
2019-05-22T23:47:58.288Z,14.13
2019-05-22T23:50:28.212Z,11.33
2019-05-22T23:52:58.487Z,13.23
2019-05-22T23:55:27.771Z,12.70
2019-05-22T23:57:56.977Z,11.23
